Time;durP1;ratioP1;P1;durP2;ratioP2;P2;SDS_P1;SDS_P2;PMS_P1;PMS_P2;Temp;Humidity;BMP_temperature;BMP_pressure;BME280_temperature;BME280_humidity;BME280_pressure;Samples;Min_cycle;Max_cycle;Signal;HPM_P1;HPM_P2
2021/04/21 00:00:10;;;;;;;29.40;16.20;;;230.50;2252.80;;;;;;4863081;29;20037;-62
2021/04/21 00:02:38;;;;;;;26.02;15.15;;;230.50;2252.80;;;;;;4862652;29;20033;-63
2021/04/21 00:05:05;;;;;;;25.52;15.40;;;230.50;2252.80;;;;;;4845069;29;20040;-63
2021/04/21 00:07:32;;;;;;;26.00;14.98;;;230.50;2252.80;;;;;;4845862;29;20041;-62
2021/04/21 00:09:59;;;;;;;23.30;13.93;;;230.50;2252.80;;;;;;4862581;29;20037;-63
2021/04/21 00:12:26;;;;;;;25.95;14.40;;;230.60;2252.80;;;;;;4862571;29;20093;-63
2021/04/21 00:14:53;;;;;;;23.77;14.05;;;230.60;2252.80;;;;;;4862596;29;20058;-62
2021/04/21 00:17:24;;;;;;;23.83;13.82;;;230.60;2252.80;;;;;;4861930;29;20034;-63
2021/04/21 00:19:53;;;;;;;23.05;13.40;;;230.60;2252.80;;;;;;4862495;29;20105;-65
2021/04/21 00:22:21;;;;;;;22.80;13.75;;;230.60;2252.80;;;;;;4861686;29;20076;-62
2021/04/21 00:24:48;;;;;;;25.27;14.10;;;230.60;2252.80;;;;;;4862203;29;20037;-63
2021/04/21 00:27:16;;;;;;;22.05;13.60;;;230.60;2252.80;;;;;;4862372;29;20062;-63
2021/04/21 00:29:46;;;;;;;22.35;12.68;;;230.70;2252.80;;;;;;4861966;29;20025;-63
2021/04/21 00:32:14;;;;;;;24.13;13.15;;;230.70;2252.80;;;;;;4862160;29;20037;-63
2021/04/21 00:34:43;;;;;;;19.83;12.85;;;230.70;2252.80;;;;;;4862003;29;20129;-62
2021/04/21 00:37:10;;;;;;;22.17;13.23;;;230.70;2252.80;;;;;;4861937;29;20101;-63
2021/04/21 00:39:39;;;;;;;22.73;13.77;;;230.70;2252.80;;;;;;4861662;29;20025;-62
2021/04/21 00:42:40;;;;;;;20.92;12.85;;;230.70;2252.80;;;;;;4862248;29;20081;-62
2021/04/21 00:45:06;;;;;;;24.52;13.25;;;230.80;2252.80;;;;;;4862239;29;20037;-62
2021/04/21 00:47:50;;;;;;;21.58;13.15;;;230.80;2252.80;;;;;;4862015;29;20365;-64
2021/04/21 00:50:46;;;;;;;21.48;13.75;;;230.80;2252.80;;;;;;4857481;29;20030;-62
2021/04/21 00:53:17;;;;;;;21.15;12.80;;;230.90;2252.80;;;;;;4786977;30;20474;-63
2021/04/21 00:55:59;;;;;;;21.30;12.70;;;230.90;2252.80;;;;;;4786981;30;20036;-62
2021/04/21 00:58:43;;;;;;;22.92;13.25;;;230.90;2252.80;;;;;;4785285;30;20077;-62
2021/04/21 01:01:11;;;;;;;20.63;12.77;;;230.90;2252.80;;;;;;4787088;30;20442;-63
2021/04/21 01:03:37;;;;;;;20.17;12.77;;;230.90;2252.80;;;;;;4803290;29;20501;-62
2021/04/21 01:06:11;;;;;;;22.25;12.57;;;230.90;2252.80;;;;;;4804774;29;20027;-63
2021/04/21 01:08:39;;;;;;;22.13;13.80;;;230.90;2252.80;;;;;;4805057;29;20519;-63
2021/04/21 01:11:16;;;;;;;22.40;13.38;;;230.90;2252.80;;;;;;4804372;29;20320;-62
2021/04/21 01:13:54;;;;;;;21.40;13.43;;;230.90;2252.80;;;;;;4804912;29;20070;-63
2021/04/21 01:16:26;;;;;;;24.63;13.50;;;230.90;2252.80;;;;;;4803720;29;20505;-62
2021/04/21 01:18:56;;;;;;;23.80;14.10;;;230.90;2252.80;;;;;;4804915;29;20443;-63
2021/04/21 01:21:36;;;;;;;22.17;13.63;;;230.90;2252.80;;;;;;4804582;29;20522;-62
2021/04/21 01:24:50;;;;;;;24.13;14.10;;;231.00;2252.80;;;;;;4804653;29;20031;-64
2021/04/21 01:27:21;;;;;;;22.15;13.02;;;231.00;2252.80;;;;;;4768332;30;20612;-63
2021/04/21 01:29:53;;;;;;;22.65;14.02;;;231.00;2252.80;;;;;;4780522;29;20078;-63
2021/04/21 01:32:27;;;;;;;24.02;14.00;;;231.00;2252.80;;;;;;4804512;29;20047;-63
2021/04/21 01:34:55;;;;;;;23.15;13.60;;;231.00;2252.80;;;;;;4803217;29;20051;-63
2021/04/21 01:37:28;;;;;;;23.92;14.13;;;231.10;2252.80;;;;;;4799991;29;20088;-63
2021/04/21 01:40:10;;;;;;;23.00;13.68;;;231.10;2252.80;;;;;;4804581;29;20508;-63
2021/04/21 01:42:40;;;;;;;21.30;13.57;;;231.10;2252.80;;;;;;4804426;29;20124;-67
2021/04/21 01:45:10;;;;;;;24.95;14.63;;;231.10;2252.80;;;;;;4804354;29;20035;-62
2021/04/21 01:47:37;;;;;;;25.42;15.68;;;231.10;2252.80;;;;;;4803704;29;20038;-64
2021/04/21 01:50:06;;;;;;;23.58;14.00;;;231.10;2252.80;;;;;;4803904;29;20064;-65
2021/04/21 01:52:37;;;;;;;22.85;14.55;;;231.10;2252.80;;;;;;4804306;29;20066;-63
2021/04/21 01:55:16;;;;;;;24.02;13.93;;;231.10;2252.80;;;;;;4804310;29;20034;-63
2021/04/21 01:57:55;;;;;;;25.20;14.63;;;231.10;2252.80;;;;;;4829909;29;20062;-62
2021/04/21 02:00:35;;;;;;;26.40;15.23;;;231.10;2252.80;;;;;;4861321;29;20384;-63
2021/04/21 02:03:24;;;;;;;25.50;15.52;;;231.10;2252.80;;;;;;4861286;29;20061;-65
2021/04/21 02:06:04;;;;;;;24.65;15.63;;;231.10;2252.80;;;;;;4804262;29;20043;-62
2021/04/21 02:08:49;;;;;;;23.83;15.48;;;231.10;2252.80;;;;;;4803337;29;20076;-62
2021/04/21 02:11:21;;;;;;;27.35;16.25;;;231.20;2252.80;;;;;;4803963;29;20151;-63
2021/04/21 02:13:56;;;;;;;24.90;15.50;;;231.20;2252.80;;;;;;4804074;29;20385;-62
2021/04/21 02:16:44;;;;;;;24.17;14.93;;;231.20;2252.80;;;;;;4804318;29;20050;-63
2021/04/21 02:19:43;;;;;;;25.85;15.13;;;231.20;2252.80;;;;;;4768309;30;20454;-63
2021/04/21 02:22:36;;;;;;;23.63;14.75;;;231.20;2252.80;;;;;;4768122;30;20116;-62
2021/04/21 02:25:22;;;;;;;24.30;14.63;;;231.20;2252.80;;;;;;4768169;30;20097;-63
2021/04/21 02:27:54;;;;;;;24.85;14.77;;;231.20;2252.80;;;;;;4767763;30;20032;-63
2021/04/21 02:30:25;;;;;;;24.20;14.77;;;231.10;2252.80;;;;;;4768140;30;20116;-63
2021/04/21 02:33:45;;;;;;;25.30;15.35;;;231.10;2252.80;;;;;;4768039;30;20373;-64
2021/04/21 02:36:15;;;;;;;24.67;14.63;;;231.10;2252.80;;;;;;4732803;30;20094;-64
2021/04/21 02:38:59;;;;;;;25.10;15.35;;;231.10;2252.80;;;;;;4733746;30;20029;-64
2021/04/21 02:41:53;;;;;;;24.40;14.55;;;231.10;2252.80;;;;;;4735896;30;20041;-63
2021/04/21 02:44:52;;;;;;;27.73;15.30;;;231.10;2252.80;;;;;;4701068;30;20244;-63
2021/04/21 02:47:28;;;;;;;25.80;16.00;;;231.10;2252.80;;;;;;4700917;30;20049;-62
2021/04/21 02:50:14;;;;;;;27.50;15.25;;;231.10;2252.80;;;;;;4700566;30;20037;-62
2021/04/21 02:52:48;;;;;;;26.23;15.85;;;231.10;2252.80;;;;;;4700803;30;20059;-63
2021/04/21 02:55:37;;;;;;;27.73;16.10;;;231.20;2252.80;;;;;;4702982;30;20115;-63
2021/04/21 02:58:35;;;;;;;26.45;15.80;;;231.20;2252.80;;;;;;4735761;30;20034;-62
2021/04/21 03:01:07;;;;;;;25.23;15.82;;;231.20;2252.80;;;;;;4735737;30;20040;-63
2021/04/21 03:03:51;;;;;;;24.95;15.70;;;231.20;2252.80;;;;;;4735589;30;20029;-63
2021/04/21 03:06:23;;;;;;;25.33;15.82;;;231.20;2252.80;;;;;;4759162;29;20179;-64
2021/04/21 03:08:59;;;;;;;25.70;15.27;;;231.30;2252.80;;;;;;4805622;29;20077;-63
2021/04/21 03:11:27;;;;;;;25.40;15.48;;;231.30;2252.80;;;;;;4806396;29;20516;-62
2021/04/21 03:14:02;;;;;;;23.27;14.98;;;256.00;2252.80;;;;;;4806072;29;20143;-63
2021/04/21 03:16:32;;;;;;;25.08;15.38;;;231.30;2252.80;;;;;;4806627;29;20031;-63
2021/04/21 03:19:03;;;;;;;22.90;15.00;;;231.30;2252.80;;;;;;4791225;29;20232;-63
2021/04/21 03:21:32;;;;;;;26.42;15.55;;;231.20;2252.80;;;;;;4841082;29;20061;-63
2021/04/21 03:24:07;;;;;;;23.83;15.63;;;231.10;2252.80;;;;;;4863401;29;20484;-64
2021/04/21 03:26:34;;;;;;;24.88;15.93;;;231.00;2252.80;;;;;;4863325;29;20033;-63
2021/04/21 03:29:03;;;;;;;26.42;16.02;;;230.90;2252.80;;;;;;4863386;29;20108;-62
2021/04/21 03:31:33;;;;;;;27.60;16.63;;;230.90;2252.80;;;;;;4862975;29;20045;-66
2021/04/21 03:34:05;;;;;;;30.98;17.55;;;230.90;2252.80;;;;;;4862839;29;20054;-63
2021/04/21 03:36:34;;;;;;;28.95;16.50;;;230.80;2252.80;;;;;;4862194;29;20038;-63
2021/04/21 03:39:01;;;;;;;28.67;16.77;;;230.80;2252.80;;;;;;4846567;29;20036;-63
2021/04/21 03:41:26;;;;;;;27.00;16.80;;;230.80;2252.80;;;;;;4863056;29;20045;-63
2021/04/21 03:43:53;;;;;;;27.65;17.10;;;230.70;2252.80;;;;;;4861519;29;20053;-65
2021/04/21 03:46:20;;;;;;;31.20;16.98;;;230.70;2252.80;;;;;;4860598;29;20049;-64
2021/04/21 03:48:46;;;;;;;28.35;16.90;;;230.70;2252.80;;;;;;4860036;29;20144;-64
2021/04/21 03:51:13;;;;;;;27.92;16.48;;;230.70;2252.80;;;;;;4860179;29;20484;-67
2021/04/21 03:53:41;;;;;;;31.08;17.67;;;230.80;2252.80;;;;;;4845158;29;20464;-64
2021/04/21 03:56:11;;;;;;;27.25;17.35;;;230.70;2252.80;;;;;;4862792;29;20033;-62
2021/04/21 03:58:39;;;;;;;28.35;16.73;;;230.70;2252.80;;;;;;4862758;29;20034;-64
2021/04/21 04:01:16;;;;;;;28.08;16.63;;;230.80;2252.80;;;;;;4862694;29;20034;-63
2021/04/21 04:03:49;;;;;;;28.40;16.13;;;230.80;2252.80;;;;;;4862930;29;20029;-63
2021/04/21 04:06:19;;;;;;;25.20;15.70;;;230.90;2252.80;;;;;;4862547;29;20036;-63
2021/04/21 04:08:53;;;;;;;25.55;16.00;;;230.90;2252.80;;;;;;4862190;29;20031;-69
2021/04/21 04:11:25;;;;;;;26.00;16.15;;;230.90;2252.80;;;;;;4860226;29;20042;-69
2021/04/21 04:13:56;;;;;;;24.92;15.60;;;231.00;2252.80;;;;;;4858691;29;20030;-68
2021/04/21 04:16:23;;;;;;;28.52;17.20;;;231.00;2252.80;;;;;;4859674;29;20049;-64
2021/04/21 04:18:51;;;;;;;27.95;17.27;;;231.10;2252.80;;;;;;4859067;29;20081;-64
2021/04/21 04:21:18;;;;;;;28.27;17.25;;;231.10;2252.80;;;;;;4859214;29;20068;-62
2021/04/21 04:23:45;;;;;;;27.02;16.48;;;231.10;2252.80;;;;;;4860275;29;20036;-62
2021/04/21 04:26:15;;;;;;;26.52;16.52;;;231.10;2252.80;;;;;;4859291;29;20030;-63
2021/04/21 04:28:42;;;;;;;25.02;15.77;;;231.10;2252.80;;;;;;4859469;29;20480;-62
2021/04/21 04:31:07;;;;;;;25.00;15.18;;;231.10;2252.80;;;;;;4859058;29;20061;-62
2021/04/21 04:33:34;;;;;;;27.60;16.63;;;231.20;2252.80;;;;;;4859957;29;20049;-65
2021/04/21 04:36:00;;;;;;;30.30;17.75;;;231.20;2252.80;;;;;;4860226;29;20396;-63
2021/04/21 04:38:27;;;;;;;33.53;17.27;;;231.20;2252.80;;;;;;4860205;29;20433;-63
2021/04/21 04:40:54;;;;;;;29.75;17.33;;;231.30;2252.80;;;;;;4859689;29;20030;-63
2021/04/21 04:43:23;;;;;;;29.00;17.80;;;256.00;2252.80;;;;;;4860416;29;20030;-64
2021/04/21 04:46:00;;;;;;;35.45;19.77;;;256.00;2252.80;;;;;;4843520;29;20029;-65
2021/04/21 04:48:40;;;;;;;28.95;18.08;;;256.00;2252.80;;;;;;4860391;29;20056;-64
2021/04/21 04:51:07;;;;;;;30.10;19.48;;;256.00;2252.80;;;;;;4856794;29;20753;-65
2021/04/21 04:53:35;;;;;;;30.73;18.80;;;256.00;2252.80;;;;;;4857232;29;20026;-66
2021/04/21 04:56:02;;;;;;;33.13;19.98;;;256.00;2252.80;;;;;;4841135;29;20041;-66
2021/04/21 04:58:28;;;;;;;25.63;16.13;;;256.00;2252.80;;;;;;4860554;29;20463;-64
2021/04/21 05:01:03;;;;;;;27.42;16.15;;;256.10;2252.80;;;;;;4859000;29;20037;-65
2021/04/21 05:03:54;;;;;;;30.05;16.23;;;256.20;2252.80;;;;;;4859989;29;20021;-64
2021/04/21 05:06:32;;;;;;;27.20;16.35;;;256.30;2252.80;;;;;;4802195;29;20035;-63
2021/04/21 05:09:02;;;;;;;25.00;16.08;;;256.40;2252.80;;;;;;4802845;29;20125;-66
2021/04/21 05:11:30;;;;;;;26.58;16.73;;;256.40;2252.80;;;;;;4802612;29;20196;-64
2021/04/21 05:13:57;;;;;;;25.52;16.17;;;256.60;2252.80;;;;;;4802995;29;20201;-64
2021/04/21 05:16:26;;;;;;;21.58;14.43;;;256.80;2252.80;;;;;;4802537;29;20038;-63
2021/04/21 05:18:52;;;;;;;23.80;15.60;;;256.90;2252.80;;;;;;4803453;29;20187;-63
2021/04/21 05:21:47;;;;;;;23.05;14.57;;;281.60;2278.40;;;;;;4803050;29;20110;-65
2021/04/21 05:24:31;;;;;;;23.48;15.82;;;281.80;2278.40;;;;;;4803393;29;20070;-64
2021/04/21 05:27:27;;;;;;;22.20;15.43;;;282.10;2278.40;;;;;;4802718;29;20030;-64
2021/04/21 05:30:28;;;;;;;23.15;15.63;;;282.30;2278.40;;;;;;4803017;29;20762;-64
2021/04/21 05:33:30;;;;;;;24.08;14.68;;;282.40;2278.40;;;;;;4767323;30;20080;-67
2021/04/21 05:36:17;;;;;;;25.05;14.63;;;307.20;2304.00;;;;;;4767493;29;20055;-67
2021/04/21 05:39:28;;;;;;;21.85;14.68;;;307.20;2304.00;;;;;;4766549;30;20756;-63
2021/04/21 05:42:12;;;;;;;21.80;13.90;;;307.20;2304.00;;;;;;4714442;30;20037;-63
2021/04/21 05:45:14;;;;;;;23.02;14.45;;;307.30;2304.00;;;;;;4714492;30;20526;-63
2021/04/21 05:48:03;;;;;;;23.02;14.00;;;307.40;2304.00;;;;;;4712979;30;20029;-62
2021/04/21 05:50:53;;;;;;;25.60;16.35;;;307.40;2278.40;;;;;;4712912;30;20103;-63
2021/04/21 05:53:36;;;;;;;20.13;12.93;;;307.60;2278.40;;;;;;4713481;30;20099;-63
2021/04/21 05:56:26;;;;;;;21.80;14.10;;;307.60;2278.40;;;;;;4713837;30;20120;-64
2021/04/21 05:59:04;;;;;;;22.33;13.75;;;307.50;2278.40;;;;;;4712849;30;20057;-63
2021/04/21 06:01:35;;;;;;;22.77;14.15;;;307.60;2252.80;;;;;;4712043;30;20601;-63
2021/04/21 06:04:01;;;;;;;20.20;13.40;;;307.50;2278.40;;;;;;4712781;30;20041;-65
2021/04/21 06:06:28;;;;;;;23.00;14.88;;;307.60;2278.40;;;;;;4713553;30;20041;-67
2021/04/21 06:08:54;;;;;;;22.25;15.23;;;307.60;2252.80;;;;;;4718374;30;20542;-63
2021/04/21 06:11:20;;;;;;;20.92;14.13;;;307.60;2252.80;;;;;;4747773;30;20051;-62
2021/04/21 06:13:49;;;;;;;22.55;15.35;;;307.60;2252.80;;;;;;4750769;30;20032;-65
2021/04/21 06:16:18;;;;;;;22.35;14.80;;;307.60;2252.80;;;;;;4751302;30;20556;-67
2021/04/21 06:18:52;;;;;;;20.05;13.20;;;307.70;2227.20;;;;;;4775187;30;20092;-64
2021/04/21 06:21:19;;;;;;;20.13;14.38;;;307.60;2252.80;;;;;;4789182;30;20162;-64
2021/04/21 06:23:45;;;;;;;26.48;16.30;;;307.60;2252.80;;;;;;4790288;30;20087;-65
2021/04/21 06:26:17;;;;;;;24.67;14.45;;;307.70;2252.80;;;;;;4788253;30;20521;-64
2021/04/21 06:28:42;;;;;;;32.10;17.92;;;307.70;2252.80;;;;;;4787509;30;20031;-63
2021/04/21 06:31:09;;;;;;;28.77;16.20;;;307.70;2227.20;;;;;;4849411;29;20053;-63
2021/04/21 06:33:37;;;;;;;29.13;16.58;;;307.90;2227.20;;;;;;4862574;29;20049;-63
2021/04/21 06:36:06;;;;;;;23.75;14.98;;;308.10;2201.60;;;;;;4863778;29;20078;-64
2021/04/21 06:38:33;;;;;;;19.58;12.98;;;332.80;2176.00;;;;;;4863300;29;20129;-63
2021/04/21 06:40:59;;;;;;;22.73;14.63;;;333.00;2150.40;;;;;;4846063;29;20048;-68
2021/04/21 06:43:30;;;;;;;22.55;12.50;;;333.10;2124.80;;;;;;4862156;29;20437;-68
2021/04/21 06:45:56;;;;;;;23.13;13.40;;;333.40;2099.20;;;;;;4864124;29;20088;-67
2021/04/21 06:48:29;;;;;;;20.38;12.50;;;333.60;2073.60;;;;;;4864065;29;20030;-67
2021/04/21 06:51:05;;;;;;;22.00;12.40;;;358.50;1996.80;;;;;;4863789;29;20506;-67
2021/04/21 06:53:30;;;;;;;19.75;12.25;;;358.70;1971.20;;;;;;4863734;29;20032;-66
2021/04/21 06:55:57;;;;;;;18.33;12.00;;;358.80;1945.60;;;;;;4863481;29;20120;-68
2021/04/21 06:58:23;;;;;;;19.50;12.52;;;359.10;1920.00;;;;;;4863481;29;20037;-66
2021/04/21 07:00:49;;;;;;;20.58;13.10;;;358.80;1894.40;;;;;;4863251;29;20030;-66
2021/04/21 07:03:20;;;;;;;21.00;14.07;;;359.20;1894.40;;;;;;4862954;29;20040;-67
2021/04/21 07:05:47;;;;;;;27.88;15.93;;;359.20;1868.80;;;;;;4847555;29;20037;-64
2021/04/21 07:08:20;;;;;;;22.33;13.60;;;384.10;1868.80;;;;;;4863847;29;20028;-65
2021/04/21 07:10:55;;;;;;;22.48;15.32;;;384.20;1843.20;;;;;;4863433;29;20124;-66
2021/04/21 07:13:34;;;;;;;19.80;13.10;;;359.30;1817.60;;;;;;4862506;29;20048;-65
2021/04/21 07:16:06;;;;;;;16.63;12.23;;;384.50;1792.00;;;;;;4844779;29;20030;-67
2021/04/21 07:18:38;;;;;;;15.63;10.55;;;384.50;1766.40;;;;;;4860583;29;20062;-65
2021/04/21 07:21:06;;;;;;;13.82;10.35;;;384.60;1766.40;;;;;;4860800;29;20120;-64
2021/04/21 07:23:34;;;;;;;14.43;10.13;;;384.50;1715.20;;;;;;4862162;29;20480;-65
2021/04/21 07:26:01;;;;;;;14.35;9.95;;;384.70;1689.60;;;;;;4862379;29;20555;-66
2021/04/21 07:28:27;;;;;;;17.52;10.60;;;409.70;1689.60;;;;;;4863328;29;20062;-65
2021/04/21 07:30:54;;;;;;;15.60;10.82;;;409.80;1664.00;;;;;;4862793;29;20125;-66
2021/04/21 07:33:37;;;;;;;14.05;9.05;;;410.20;1638.40;;;;;;4862773;29;20077;-66
2021/04/21 07:36:28;;;;;;;44.97;28.00;;;410.40;1561.60;;;;;;4863349;29;20065;-66
2021/04/21 07:39:07;;;;;;;21.75;14.07;;;435.20;1561.60;;;;;;4846364;29;20085;-65
2021/04/21 07:41:41;;;;;;;20.83;16.13;;;435.70;1536.00;;;;;;4861939;29;20033;-67
2021/04/21 07:44:26;;;;;;;18.58;14.63;;;435.70;1510.40;;;;;;4860536;29;20072;-65
2021/04/21 07:46:59;;;;;;;15.48;11.65;;;435.90;1459.20;;;;;;4822728;29;20026;-63
2021/04/21 07:49:30;;;;;;;12.98;10.38;;;435.90;1408.00;;;;;;4858563;29;20025;-64
2021/04/21 07:51:56;;;;;;;14.50;10.07;;;435.80;1408.00;;;;;;4859966;29;20555;-65
2021/04/21 07:54:23;;;;;;;24.25;13.98;;;435.90;1382.40;;;;;;4861281;29;20140;-64
2021/04/21 07:57:10;;;;;;;27.25;14.85;;;460.80;1433.60;;;;;;4842032;29;20383;-64
2021/04/21 07:59:41;;;;;;;58.35;28.23;;;461.30;1382.40;;;;;;4857832;29;20037;-65
2021/04/21 08:02:14;;;;;;;13.35;10.40;;;461.60;1356.80;;;;;;4860363;29;20044;-67
2021/04/21 08:04:51;;;;;;;19.17;13.20;;;461.50;1356.80;;;;;;4861560;29;20030;-66
2021/04/21 08:07:27;;;;;;;16.38;11.60;;;461.70;1356.80;;;;;;4861903;29;20131;-65
2021/04/21 08:09:53;;;;;;;15.23;9.75;;;486.50;1305.60;;;;;;4861404;29;20085;-66
2021/04/21 08:12:19;;;;;;;14.65;9.70;;;486.40;1305.60;;;;;;4860635;29;20037;-68
2021/04/21 08:14:50;;;;;;;12.57;9.10;;;486.60;1280.00;;;;;;4858589;29;20126;-65
2021/04/21 08:17:18;;;;;;;15.02;10.43;;;486.50;1280.00;;;;;;4842103;29;20061;-65
2021/04/21 08:19:47;;;;;;;20.15;12.15;;;486.60;1280.00;;;;;;4862068;29;20037;-65
2021/04/21 08:22:13;;;;;;;17.77;11.70;;;486.60;1331.20;;;;;;4861044;29;20473;-65
2021/04/21 08:24:45;;;;;;;15.73;10.60;;;487.00;1280.00;;;;;;4860608;29;20129;-70
2021/04/21 08:27:16;;;;;;;15.93;10.05;;;487.30;1254.40;;;;;;4860781;29;20078;-69
2021/04/21 08:29:43;;;;;;;11.63;8.88;;;487.00;1254.40;;;;;;4861197;29;20029;-70
2021/04/21 08:32:11;;;;;;;20.00;11.68;;;487.00;1228.80;;;;;;4861120;29;20041;-70
2021/04/21 08:34:37;;;;;;;14.05;9.63;;;487.20;1228.80;;;;;;4859181;29;20504;-65
2021/04/21 08:37:04;;;;;;;19.48;11.85;;;512.10;1254.40;;;;;;4841916;29;20412;-66
2021/04/21 08:39:31;;;;;;;13.27;8.60;;;487.10;1203.20;;;;;;4841883;29;20033;-65
2021/04/21 08:42:00;;;;;;;14.80;10.15;;;487.00;1228.80;;;;;;4826191;29;20034;-64
2021/04/21 08:44:35;;;;;;;17.88;11.82;;;487.10;1228.80;;;;;;4842291;29;20024;-65
2021/04/21 08:47:02;;;;;;;;;;;487.10;1228.80;;;;;;4848359;29;20154;-64
2021/04/21 08:49:30;;;;;;;12.63;9.02;;;487.20;1254.40;;;;;;4861431;29;19915;-64
2021/04/21 08:51:58;;;;;;;13.77;9.75;;;487.30;1280.00;;;;;;4861747;29;20464;-64
2021/04/21 08:54:26;;;;;;;13.32;10.07;;;487.30;1254.40;;;;;;4861450;29;20166;-67
2021/04/21 08:56:54;;;;;;;13.48;10.82;;;512.10;1228.80;;;;;;4861279;29;20044;-66
2021/04/21 08:59:20;;;;;;;15.80;11.27;;;512.10;1254.40;;;;;;4861336;29;20026;-64
2021/04/21 09:01:47;;;;;;;16.05;10.52;;;512.30;1228.80;;;;;;4861333;29;20441;-65
2021/04/21 09:04:16;;;;;;;15.02;11.18;;;512.70;1203.20;;;;;;4860810;29;20112;-66
2021/04/21 09:06:45;;;;;;;15.30;9.77;;;512.70;1177.60;;;;;;4851927;29;20041;-67
2021/04/21 09:09:11;;;;;;;13.68;9.00;;;512.30;1177.60;;;;;;4851005;29;20059;-64
2021/04/21 09:11:38;;;;;;;15.88;10.80;;;512.30;1177.60;;;;;;4860766;29;20041;-70
2021/04/21 09:14:04;;;;;;;12.15;8.82;;;512.50;1152.00;;;;;;4861155;29;20025;-67
2021/04/21 09:16:30;;;;;;;13.88;9.38;;;512.50;1152.00;;;;;;4861485;29;20042;-69
2021/04/21 09:18:56;;;;;;;12.13;8.70;;;512.50;1177.60;;;;;;4861093;29;20033;-68
2021/04/21 09:21:28;;;;;;;16.60;10.48;;;512.70;1126.40;;;;;;4860877;29;20105;-70
2021/04/21 09:23:54;;;;;;;12.50;9.32;;;512.60;1152.00;;;;;;4861077;29;20109;-69
2021/04/21 09:26:32;;;;;;;15.13;11.00;;;512.50;1152.00;;;;;;4860937;29;20116;-67
2021/04/21 09:28:58;;;;;;;12.07;9.40;;;512.60;1075.20;;;;;;4859905;29;20086;-65
2021/04/21 09:31:26;;;;;;;17.90;11.85;;;512.80;1075.20;;;;;;4858135;29;20051;-68
2021/04/21 09:34:18;;;;;;;10.85;8.75;;;512.60;1100.80;;;;;;4842922;29;20057;-68
2021/04/21 09:36:47;;;;;;;18.30;12.60;;;512.90;1100.80;;;;;;4854474;29;20030;-65
2021/04/21 09:39:17;;;;;;;19.98;12.98;;;537.60;1152.00;;;;;;4858437;29;20034;-67
2021/04/21 09:41:49;;;;;;;11.43;8.32;;;537.80;1152.00;;;;;;4849908;29;20034;-65
2021/04/21 09:44:32;;;;;;;15.98;12.30;;;512.70;1075.20;;;;;;4852042;29;20496;-65
2021/04/21 09:46:59;;;;;;;11.85;8.70;;;537.70;1100.80;;;;;;4855181;29;20052;-68
2021/04/21 09:49:39;;;;;;;9.40;6.40;;;537.70;1075.20;;;;;;4859042;29;20468;-68
2021/04/21 09:52:13;;;;;;;11.10;7.65;;;537.90;1049.60;;;;;;4854836;29;20033;-66
2021/04/21 09:54:44;;;;;;;8.93;6.55;;;538.10;972.80;;;;;;4851173;29;20029;-69
2021/04/21 09:57:19;;;;;;;10.27;6.95;;;538.50;972.80;;;;;;4855185;29;20118;-66
2021/04/21 10:00:05;;;;;;;10.80;7.00;;;563.50;998.40;;;;;;4854648;29;20045;-65
2021/04/21 10:02:36;;;;;;;10.00;8.02;;;563.90;972.80;;;;;;4858926;29;20065;-64
2021/04/21 10:05:33;;;;;;;10.77;7.95;;;563.80;998.40;;;;;;4857984;29;20497;-68
2021/04/21 10:08:21;;;;;;;12.45;9.90;;;563.90;972.80;;;;;;4853871;29;20054;-71
2021/04/21 10:10:59;;;;;;;11.90;7.93;;;564.10;972.80;;;;;;4851934;29;20045;-74
2021/04/21 10:13:25;;;;;;;8.95;7.47;;;588.90;998.40;;;;;;4854522;29;20029;-71
2021/04/21 10:15:51;;;;;;;10.93;8.48;;;589.10;972.80;;;;;;4852977;29;20041;-68
2021/04/21 10:18:17;;;;;;;9.05;6.93;;;589.00;921.60;;;;;;4851692;29;20037;-66
2021/04/21 10:20:45;;;;;;;8.93;6.43;;;589.20;921.60;;;;;;4851468;29;20050;-64
2021/04/21 10:23:13;;;;;;;7.72;6.18;;;589.40;870.40;;;;;;4853585;29;20038;-69
2021/04/21 10:25:40;;;;;;;8.32;6.47;;;589.50;870.40;;;;;;4849703;29;20610;-68
2021/04/21 10:28:08;;;;;;;14.18;7.30;;;614.50;896.00;;;;;;4844530;29;20044;-73
2021/04/21 10:30:38;;;;;;;10.77;7.85;;;589.60;870.40;;;;;;4848791;29;20066;-69
2021/04/21 10:33:04;;;;;;;10.55;7.78;;;589.50;896.00;;;;;;4851743;29;20053;-64
2021/04/21 10:35:30;;;;;;;10.52;8.82;;;614.40;844.80;;;;;;4838877;29;20081;-67
2021/04/21 10:37:57;;;;;;;10.38;8.48;;;614.50;870.40;;;;;;4853904;29;20041;-65
2021/04/21 10:40:29;;;;;;;11.55;8.90;;;614.90;896.00;;;;;;4855135;29;20548;-65
2021/04/21 10:42:59;;;;;;;13.18;10.10;;;615.30;844.80;;;;;;4853100;29;20029;-65
2021/04/21 10:45:28;;;;;;;11.70;9.32;;;640.10;819.20;;;;;;4853497;29;20472;-65
2021/04/21 10:47:56;;;;;;;11.75;8.88;;;640.30;793.60;;;;;;4856174;29;20090;-70
2021/04/21 10:50:44;;;;;;;9.25;7.03;;;640.60;768.00;;;;;;4850989;29;20064;-67
2021/04/21 10:53:29;;;;;;;9.15;7.85;;;666.00;768.00;;;;;;4843338;29;20037;-76
2021/04/21 10:55:55;;;;;;;8.70;7.80;;;640.60;742.40;;;;;;4854797;29;20085;-68
2021/04/21 10:58:21;;;;;;;9.43;7.63;;;666.50;716.80;;;;;;4862919;29;20426;-67
2021/04/21 11:00:48;;;;;;;9.57;7.32;;;716.90;691.20;;;;;;4856101;29;20029;-69
2021/04/21 11:03:26;;;;;;;8.10;6.47;;;742.70;665.60;;;;;;4848223;29;20032;-63
2021/04/21 11:06:02;;;;;;;8.93;7.15;;;743.00;640.00;;;;;;4853147;29;20029;-65
2021/04/21 11:08:54;;;;;;;7.85;6.93;;;819.20;512.00;;;;;;4861336;29;20033;-69
2021/04/21 11:11:37;;;;;;;8.80;7.90;;;794.40;512.00;;;;;;4861919;29;20116;-68
2021/04/21 11:14:03;;;;;;;7.00;6.22;;;820.00;460.80;;;;;;4859970;29;20033;-64
2021/04/21 11:16:29;;;;;;;7.22;5.95;;;845.50;460.80;;;;;;4834798;29;20089;-62
2021/04/21 11:19:15;;;;;;;5.90;5.30;;;845.00;486.40;;;;;;4859367;29;20045;-69
2021/04/21 11:21:41;;;;;;;7.68;5.47;;;793.80;486.40;;;;;;4859750;29;20066;-69
2021/04/21 11:24:06;;;;;;;9.70;6.70;;;768.20;512.00;;;;;;4861488;29;20033;-62
2021/04/21 11:26:37;;;;;;;8.30;7.00;;;742.90;537.60;;;;;;4843383;29;20026;-62
2021/04/21 11:29:16;;;;;;;8.18;7.32;;;717.70;563.20;;;;;;4844647;29;20086;-64
2021/04/21 11:31:45;;;;;;;10.10;6.95;;;768.80;486.40;;;;;;4860242;29;20056;-62
2021/04/21 11:34:19;;;;;;;7.85;7.05;;;820.00;409.60;;;;;;4862219;29;20445;-62
2021/04/21 11:36:57;;;;;;;8.25;7.38;;;845.00;460.80;;;;;;4861257;29;20143;-66
2021/04/21 11:39:44;;;;;;;9.45;7.10;;;819.30;460.80;;;;;;4844116;29;20040;-65
2021/04/21 11:42:30;;;;;;;10.27;8.45;;;768.60;512.00;;;;;;4843500;29;20026;-63
2021/04/21 11:45:16;;;;;;;9.43;7.40;;;743.10;537.60;;;;;;4848809;29;20437;-63
2021/04/21 11:47:48;;;;;;;9.82;8.45;;;717.40;563.20;;;;;;4861567;29;20036;-64
2021/04/21 11:50:17;;;;;;;12.93;7.40;;;691.50;614.40;;;;;;4861553;29;20040;-66
2021/04/21 11:53:02;;;;;;;10.63;8.35;;;666.20;640.00;;;;;;4861284;29;20092;-68
2021/04/21 11:55:53;;;;;;;9.98;8.10;;;691.40;614.40;;;;;;4859387;29;20140;-62
2021/04/21 11:58:33;;;;;;;11.48;8.10;;;691.50;588.80;;;;;;4857640;29;20033;-60
2021/04/21 12:01:06;;;;;;;8.98;7.13;;;716.80;614.40;;;;;;4854022;29;20029;-62
2021/04/21 12:03:33;;;;;;;10.73;9.02;;;793.70;512.00;;;;;;4861468;29;20085;-65
2021/04/21 12:06:07;;;;;;;15.38;7.88;;;794.40;460.80;;;;;;4862359;29;20101;-62
2021/04/21 12:08:36;;;;;;;10.48;8.75;;;768.00;537.60;;;;;;4862079;29;20494;-65
2021/04/21 12:11:03;;;;;;;10.82;8.95;;;794.50;460.80;;;;;;4861543;29;20105;-62
2021/04/21 12:13:33;;;;;;;8.95;8.00;;;819.90;435.20;;;;;;4860985;29;20029;-64
2021/04/21 12:16:15;;;;;;;6.68;5.97;;;871.30;384.00;;;;;;4847560;29;20112;-65
2021/04/21 12:18:48;;;;;;;10.77;8.15;;;947.30;307.20;;;;;;4859443;29;20025;-65
2021/04/21 12:21:17;;;;;;;6.85;6.15;;;973.40;307.20;;;;;;4861880;29;20045;-61
2021/04/21 12:23:46;;;;;;;8.25;6.97;;;1024.40;332.80;;;;;;4861612;29;20547;-62
2021/04/21 12:26:33;;;;;;;5.72;5.22;;;1024.40;332.80;;;;;;4861037;29;20057;-64
2021/04/21 12:29:02;;;;;;;6.32;5.68;;;1050.50;358.40;;;;;;4862347;29;20025;-62
2021/04/21 12:31:31;;;;;;;8.77;6.70;;;1075.40;358.40;;;;;;4843793;29;20041;-63
2021/04/21 12:33:59;;;;;;;5.85;5.25;;;1075.50;358.40;;;;;;4859352;29;20049;-63
2021/04/21 12:36:33;;;;;;;7.13;6.43;;;1101.60;384.00;;;;;;4861385;29;20031;-60